sensor_id;sensor_type;location;lat;lon;timestamp;temperature;humidity
27900;DHT22;15243;50.726;7.080;2023-05-07T00:00:36;13.00;99.90
27900;DHT22;15243;50.726;7.080;2023-05-07T00:03:03;13.00;99.90
27900;DHT22;15243;50.726;7.080;2023-05-07T04:40:55;12.90;99.90
27900;DHT22;15243;50.726;7.080;2023-05-07T04:43:22;12.90;99.90
27900;DHT22;15243;50.726;7.080;2023-05-07T04:45:51;12.90;99.90
27900;DHT22;15243;50.726;7.080;2023-05-07T04:48:18;13.00;99.90
27900;DHT22;15243;50.726;7.080;2023-05-07T04:50:50;13.00;99.90
27900;DHT22;15243;50.726;7.080;2023-05-07T04:53:18;13.00;99.90
27900;DHT22;15243;50.726;7.080;2023-05-07T04:55:45;13.00;99.90
27900;DHT22;15243;50.726;7.080;2023-05-07T04:58:12;13.10;99.90
27900;DHT22;15243;50.726;7.080;2023-05-07T05:00:39;13.10;99.90
27900;DHT22;15243;50.726;7.080;2023-05-07T05:03:07;13.10;99.90
27900;DHT22;15243;50.726;7.080;2023-05-07T05:05:34;13.30;99.90
27900;DHT22;15243;50.726;7.080;2023-05-07T05:08:01;13.30;99.90
27900;DHT22;15243;50.726;7.080;2023-05-07T05:10:28;13.30;99.90
27900;DHT22;15243;50.726;7.080;2023-05-07T05:12:55;13.40;99.90
27900;DHT22;15243;50.726;7.080;2023-05-07T05:15:22;13.50;99.90
27900;DHT22;15243;50.726;7.080;2023-05-07T05:17:49;13.60;99.90
27900;DHT22;15243;50.726;7.080;2023-05-07T05:20:16;13.60;99.90
27900;DHT22;15243;50.726;7.080;2023-05-07T05:22:43;13.80;99.90
27900;DHT22;15243;50.726;7.080;2023-05-07T05:25:10;13.70;99.90
27900;DHT22;15243;50.726;7.080;2023-05-07T05:27:37;13.70;99.90
27900;DHT22;15243;50.726;7.080;2023-05-07T05:30:04;13.80;99.90
27900;DHT22;15243;50.726;7.080;2023-05-07T05:32:32;13.90;99.90
27900;DHT22;15243;50.726;7.080;2023-05-07T05:35:00;14.10;99.90
27900;DHT22;15243;50.726;7.080;2023-05-07T05:37:27;14.00;99.90
27900;DHT22;15243;50.726;7.080;2023-05-07T05:39:54;14.00;99.90
27900;DHT22;15243;50.726;7.080;2023-05-07T05:42:22;13.90;99.90
27900;DHT22;15243;50.726;7.080;2023-05-07T05:44:49;14.00;99.90
27900;DHT22;15243;50.726;7.080;2023-05-07T05:47:16;13.90;99.90
27900;DHT22;15243;50.726;7.080;2023-05-07T05:49:43;14.00;99.90
27900;DHT22;15243;50.726;7.080;2023-05-07T05:52:12;14.10;99.90
27900;DHT22;15243;50.726;7.080;2023-05-07T05:54:40;14.10;99.90
27900;DHT22;15243;50.726;7.080;2023-05-07T05:57:07;14.20;99.90
27900;DHT22;15243;50.726;7.080;2023-05-07T05:59:34;14.40;99.90
27900;DHT22;15243;50.726;7.080;2023-05-07T06:02:02;14.30;99.90
27900;DHT22;15243;50.726;7.080;2023-05-07T06:04:29;14.30;99.90
27900;DHT22;15243;50.726;7.080;2023-05-07T06:06:56;14.50;99.90
27900;DHT22;15243;50.726;7.080;2023-05-07T06:09:23;14.60;99.90
27900;DHT22;15243;50.726;7.080;2023-05-07T06:11:50;14.80;99.90
27900;DHT22;15243;50.726;7.080;2023-05-07T06:14:17;15.10;99.90
27900;DHT22;15243;50.726;7.080;2023-05-07T06:16:44;15.20;99.90
27900;DHT22;15243;50.726;7.080;2023-05-07T06:19:12;15.50;99.90
27900;DHT22;15243;50.726;7.080;2023-05-07T06:21:39;15.60;99.90
27900;DHT22;15243;50.726;7.080;2023-05-07T06:24:08;15.60;99.90
27900;DHT22;15243;50.726;7.080;2023-05-07T06:26:35;15.60;99.90
27900;DHT22;15243;50.726;7.080;2023-05-07T06:29:03;15.70;99.90
27900;DHT22;15243;50.726;7.080;2023-05-07T06:31:30;15.80;99.90
27900;DHT22;15243;50.726;7.080;2023-05-07T06:33:58;15.90;99.90
27900;DHT22;15243;50.726;7.080;2023-05-07T06:36:25;16.00;99.90
27900;DHT22;15243;50.726;7.080;2023-05-07T06:38:53;16.20;99.90
27900;DHT22;15243;50.726;7.080;2023-05-07T06:41:20;16.10;99.90
27900;DHT22;15243;50.726;7.080;2023-05-07T06:43:47;16.10;99.90
27900;DHT22;15243;50.726;7.080;2023-05-07T06:46:14;16.10;99.90
27900;DHT22;15243;50.726;7.080;2023-05-07T06:48:41;16.20;99.90
27900;DHT22;15243;50.726;7.080;2023-05-07T06:51:08;16.10;99.90
27900;DHT22;15243;50.726;7.080;2023-05-07T06:53:35;16.30;99.90
27900;DHT22;15243;50.726;7.080;2023-05-07T06:56:02;16.40;99.90
27900;DHT22;15243;50.726;7.080;2023-05-07T06:58:30;16.40;99.90
27900;DHT22;15243;50.726;7.080;2023-05-07T07:00:56;16.50;99.90
27900;DHT22;15243;50.726;7.080;2023-05-07T07:03:23;16.40;99.90
27900;DHT22;15243;50.726;7.080;2023-05-07T07:05:54;16.60;99.90
27900;DHT22;15243;50.726;7.080;2023-05-07T07:08:22;16.70;99.90
27900;DHT22;15243;50.726;7.080;2023-05-07T07:10:49;17.00;99.90
27900;DHT22;15243;50.726;7.080;2023-05-07T07:13:16;17.00;99.90
27900;DHT22;15243;50.726;7.080;2023-05-07T07:15:43;17.00;99.90
27900;DHT22;15243;50.726;7.080;2023-05-07T07:18:10;17.10;99.90
27900;DHT22;15243;50.726;7.080;2023-05-07T07:20:37;17.30;99.90
27900;DHT22;15243;50.726;7.080;2023-05-07T07:23:04;17.20;99.90
27900;DHT22;15243;50.726;7.080;2023-05-07T07:25:32;17.10;99.90
27900;DHT22;15243;50.726;7.080;2023-05-07T07:27:58;17.20;99.90
27900;DHT22;15243;50.726;7.080;2023-05-07T07:30:25;17.40;99.90
27900;DHT22;15243;50.726;7.080;2023-05-07T07:32:53;17.60;99.90
27900;DHT22;15243;50.726;7.080;2023-05-07T07:35:20;17.40;99.90
27900;DHT22;15243;50.726;7.080;2023-05-07T07:37:48;17.20;99.90
27900;DHT22;15243;50.726;7.080;2023-05-07T07:40:16;17.00;99.90
27900;DHT22;15243;50.726;7.080;2023-05-07T07:42:43;16.90;99.90
27900;DHT22;15243;50.726;7.080;2023-05-07T07:45:11;17.30;99.90
27900;DHT22;15243;50.726;7.080;2023-05-07T07:47:39;17.20;99.90
27900;DHT22;15243;50.726;7.080;2023-05-07T07:50:07;17.40;99.90
27900;DHT22;15243;50.726;7.080;2023-05-07T07:52:35;17.70;99.90
27900;DHT22;15243;50.726;7.080;2023-05-07T07:55:02;17.90;99.90
27900;DHT22;15243;50.726;7.080;2023-05-07T07:57:29;18.00;99.90
27900;DHT22;15243;50.726;7.080;2023-05-07T07:59:56;18.10;99.90
27900;DHT22;15243;50.726;7.080;2023-05-07T08:02:23;18.10;99.90
27900;DHT22;15243;50.726;7.080;2023-05-07T08:04:51;17.90;99.90
27900;DHT22;15243;50.726;7.080;2023-05-07T08:07:18;17.70;99.90
27900;DHT22;15243;50.726;7.080;2023-05-07T08:09:47;18.00;99.90
27900;DHT22;15243;50.726;7.080;2023-05-07T08:12:14;18.30;99.90
27900;DHT22;15243;50.726;7.080;2023-05-07T08:14:41;18.50;99.90
27900;DHT22;15243;50.726;7.080;2023-05-07T08:17:08;18.50;99.90
27900;DHT22;15243;50.726;7.080;2023-05-07T08:19:36;18.70;99.90
27900;DHT22;15243;50.726;7.080;2023-05-07T08:22:04;18.50;99.90
27900;DHT22;15243;50.726;7.080;2023-05-07T08:24:33;18.80;99.90
27900;DHT22;15243;50.726;7.080;2023-05-07T08:27:00;19.20;99.90
27900;DHT22;15243;50.726;7.080;2023-05-07T08:29:27;19.40;99.90
27900;DHT22;15243;50.726;7.080;2023-05-07T08:31:54;19.30;99.90
27900;DHT22;15243;50.726;7.080;2023-05-07T08:34:22;19.10;99.90
27900;DHT22;15243;50.726;7.080;2023-05-07T08:36:49;19.10;99.90
27900;DHT22;15243;50.726;7.080;2023-05-07T08:39:16;19.00;99.90
27900;DHT22;15243;50.726;7.080;2023-05-07T08:41:46;18.80;99.90
27900;DHT22;15243;50.726;7.080;2023-05-07T08:44:16;18.90;99.90
27900;DHT22;15243;50.726;7.080;2023-05-07T08:46:47;19.10;99.90
27900;DHT22;15243;50.726;7.080;2023-05-07T08:49:17;19.00;99.90
27900;DHT22;15243;50.726;7.080;2023-05-07T08:51:43;19.20;99.90
27900;DHT22;15243;50.726;7.080;2023-05-07T08:54:11;19.50;99.90
27900;DHT22;15243;50.726;7.080;2023-05-07T08:56:39;19.40;99.90
27900;DHT22;15243;50.726;7.080;2023-05-07T08:59:06;19.60;99.90
27900;DHT22;15243;50.726;7.080;2023-05-07T09:01:33;19.70;99.90
27900;DHT22;15243;50.726;7.080;2023-05-07T09:04:02;19.80;99.90
27900;DHT22;15243;50.726;7.080;2023-05-07T09:06:30;19.80;99.90
27900;DHT22;15243;50.726;7.080;2023-05-07T09:08:57;20.20;99.90
27900;DHT22;15243;50.726;7.080;2023-05-07T09:11:27;20.10;99.90
27900;DHT22;15243;50.726;7.080;2023-05-07T09:13:56;20.30;99.90
27900;DHT22;15243;50.726;7.080;2023-05-07T09:16:25;20.70;99.90
27900;DHT22;15243;50.726;7.080;2023-05-07T09:18:54;20.90;99.90
27900;DHT22;15243;50.726;7.080;2023-05-07T09:21:21;21.00;99.90
27900;DHT22;15243;50.726;7.080;2023-05-07T09:23:54;20.50;99.90
27900;DHT22;15243;50.726;7.080;2023-05-07T09:26:21;20.50;99.90
27900;DHT22;15243;50.726;7.080;2023-05-07T09:28:49;20.70;99.90
27900;DHT22;15243;50.726;7.080;2023-05-07T09:31:16;20.50;99.90
27900;DHT22;15243;50.726;7.080;2023-05-07T09:33:46;20.70;99.90
27900;DHT22;15243;50.726;7.080;2023-05-07T09:36:13;20.70;99.90
27900;DHT22;15243;50.726;7.080;2023-05-07T09:38:41;21.30;99.90
27900;DHT22;15243;50.726;7.080;2023-05-07T09:41:12;21.50;99.90
27900;DHT22;15243;50.726;7.080;2023-05-07T09:43:40;21.40;71.30
27900;DHT22;15243;50.726;7.080;2023-05-07T09:46:13;21.40;99.90
27900;DHT22;15243;50.726;7.080;2023-05-07T09:48:42;21.40;89.50
27900;DHT22;15243;50.726;7.080;2023-05-07T09:51:22;21.60;69.00
27900;DHT22;15243;50.726;7.080;2023-05-07T09:53:51;22.10;85.20
27900;DHT22;15243;50.726;7.080;2023-05-07T09:56:19;22.20;49.10
27900;DHT22;15243;50.726;7.080;2023-05-07T09:58:47;22.20;64.70
27900;DHT22;15243;50.726;7.080;2023-05-07T10:01:13;22.20;34.70
27900;DHT22;15243;50.726;7.080;2023-05-07T10:03:41;22.20;88.20
27900;DHT22;15243;50.726;7.080;2023-05-07T10:06:12;22.50;74.70
27900;DHT22;15243;50.726;7.080;2023-05-07T10:08:40;23.00;32.50
27900;DHT22;15243;50.726;7.080;2023-05-07T10:11:07;22.90;7.70
27900;DHT22;15243;50.726;7.080;2023-05-07T10:13:34;23.20;27.70
27900;DHT22;15243;50.726;7.080;2023-05-07T10:16:05;23.30;19.20
27900;DHT22;15243;50.726;7.080;2023-05-07T10:18:33;23.10;9.40
27900;DHT22;15243;50.726;7.080;2023-05-07T10:21:06;23.20;1.00
27900;DHT22;15243;50.726;7.080;2023-05-07T10:23:33;23.40;1.00
27900;DHT22;15243;50.726;7.080;2023-05-07T10:26:06;23.10;1.00
27900;DHT22;15243;50.726;7.080;2023-05-07T10:28:41;23.10;1.00
27900;DHT22;15243;50.726;7.080;2023-05-07T10:34:00;23.30;1.00
27900;DHT22;15243;50.726;7.080;2023-05-07T10:36:28;23.30;1.00
27900;DHT22;15243;50.726;7.080;2023-05-07T10:38:55;23.40;1.00
27900;DHT22;15243;50.726;7.080;2023-05-07T10:41:23;23.70;1.00
27900;DHT22;15243;50.726;7.080;2023-05-07T10:43:49;24.00;1.00
27900;DHT22;15243;50.726;7.080;2023-05-07T10:46:17;24.00;1.00
27900;DHT22;15243;50.726;7.080;2023-05-07T10:51:30;24.40;1.00
27900;DHT22;15243;50.726;7.080;2023-05-07T10:56:39;25.00;1.00
27900;DHT22;15243;50.726;7.080;2023-05-07T11:02:05;25.00;1.00
27900;DHT22;15243;50.726;7.080;2023-05-07T11:04:34;24.70;1.00
27900;DHT22;15243;50.726;7.080;2023-05-07T11:15:09;24.60;1.00
27900;DHT22;15243;50.726;7.080;2023-05-07T11:17:54;24.20;1.00
27900;DHT22;15243;50.726;7.080;2023-05-07T11:26:04;24.10;1.00
27900;DHT22;15243;50.726;7.080;2023-05-07T11:28:36;23.90;1.00
27900;DHT22;15243;50.726;7.080;2023-05-07T11:31:04;24.10;1.00
27900;DHT22;15243;50.726;7.080;2023-05-07T11:33:31;23.80;1.00
27900;DHT22;15243;50.726;7.080;2023-05-07T11:36:01;23.80;1.00
27900;DHT22;15243;50.726;7.080;2023-05-07T11:38:30;23.80;1.00
27900;DHT22;15243;50.726;7.080;2023-05-07T11:40:59;23.90;1.00
27900;DHT22;15243;50.726;7.080;2023-05-07T11:43:33;23.20;1.00
27900;DHT22;15243;50.726;7.080;2023-05-07T11:46:07;22.90;1.00
27900;DHT22;15243;50.726;7.080;2023-05-07T11:48:35;23.10;1.00
27900;DHT22;15243;50.726;7.080;2023-05-07T11:51:04;22.80;1.00
27900;DHT22;15243;50.726;7.080;2023-05-07T11:53:42;23.00;1.00
27900;DHT22;15243;50.726;7.080;2023-05-07T11:56:10;23.10;1.00
27900;DHT22;15243;50.726;7.080;2023-05-07T11:58:38;23.10;1.00
27900;DHT22;15243;50.726;7.080;2023-05-07T12:01:08;22.90;1.00
27900;DHT22;15243;50.726;7.080;2023-05-07T12:03:36;22.90;1.00
27900;DHT22;15243;50.726;7.080;2023-05-07T12:06:10;22.80;1.00
27900;DHT22;15243;50.726;7.080;2023-05-07T12:08:39;22.80;1.00
27900;DHT22;15243;50.726;7.080;2023-05-07T12:11:08;22.60;1.00
27900;DHT22;15243;50.726;7.080;2023-05-07T12:13:36;22.60;1.00
27900;DHT22;15243;50.726;7.080;2023-05-07T12:16:04;22.40;1.00
27900;DHT22;15243;50.726;7.080;2023-05-07T12:18:33;22.40;1.00
27900;DHT22;15243;50.726;7.080;2023-05-07T12:21:01;22.30;1.00
27900;DHT22;15243;50.726;7.080;2023-05-07T12:23:29;21.90;1.00
27900;DHT22;15243;50.726;7.080;2023-05-07T12:25:56;21.90;1.00
27900;DHT22;15243;50.726;7.080;2023-05-07T12:28:23;21.70;1.00
27900;DHT22;15243;50.726;7.080;2023-05-07T12:30:50;21.80;1.00
27900;DHT22;15243;50.726;7.080;2023-05-07T12:33:23;21.90;1.00
27900;DHT22;15243;50.726;7.080;2023-05-07T12:35:50;21.90;1.00
27900;DHT22;15243;50.726;7.080;2023-05-07T12:38:18;21.90;1.00
27900;DHT22;15243;50.726;7.080;2023-05-07T12:40:48;21.60;1.00
27900;DHT22;15243;50.726;7.080;2023-05-07T12:43:21;21.60;1.00
27900;DHT22;15243;50.726;7.080;2023-05-07T12:45:49;21.70;1.00
27900;DHT22;15243;50.726;7.080;2023-05-07T12:48:17;21.90;1.00
27900;DHT22;15243;50.726;7.080;2023-05-07T12:50:44;21.90;1.00
27900;DHT22;15243;50.726;7.080;2023-05-07T12:53:12;22.00;1.00
27900;DHT22;15243;50.726;7.080;2023-05-07T12:55:50;22.00;1.00
27900;DHT22;15243;50.726;7.080;2023-05-07T12:58:25;22.10;1.00
27900;DHT22;15243;50.726;7.080;2023-05-07T13:00:55;21.90;1.00
27900;DHT22;15243;50.726;7.080;2023-05-07T13:03:34;21.90;1.00
27900;DHT22;15243;50.726;7.080;2023-05-07T13:06:04;21.80;1.00
27900;DHT22;15243;50.726;7.080;2023-05-07T13:08:33;21.70;1.00
27900;DHT22;15243;50.726;7.080;2023-05-07T13:11:01;21.70;1.00
27900;DHT22;15243;50.726;7.080;2023-05-07T13:13:33;21.70;1.00
27900;DHT22;15243;50.726;7.080;2023-05-07T13:16:02;21.90;1.00
27900;DHT22;15243;50.726;7.080;2023-05-07T13:18:30;21.70;1.00
27900;DHT22;15243;50.726;7.080;2023-05-07T13:20:58;21.70;1.00
27900;DHT22;15243;50.726;7.080;2023-05-07T13:23:25;21.90;1.00
27900;DHT22;15243;50.726;7.080;2023-05-07T13:25:53;22.00;1.00
27900;DHT22;15243;50.726;7.080;2023-05-07T13:28:23;21.80;1.00
27900;DHT22;15243;50.726;7.080;2023-05-07T13:30:52;22.30;1.00
27900;DHT22;15243;50.726;7.080;2023-05-07T13:33:21;22.40;1.00
27900;DHT22;15243;50.726;7.080;2023-05-07T13:35:48;22.30;1.00
27900;DHT22;15243;50.726;7.080;2023-05-07T13:38:15;22.30;1.00
27900;DHT22;15243;50.726;7.080;2023-05-07T13:40:42;22.40;1.00
27900;DHT22;15243;50.726;7.080;2023-05-07T13:43:10;22.50;1.00
27900;DHT22;15243;50.726;7.080;2023-05-07T13:45:37;22.30;1.00
27900;DHT22;15243;50.726;7.080;2023-05-07T13:48:04;22.20;6.40
27900;DHT22;15243;50.726;7.080;2023-05-07T13:50:32;22.10;1.00
27900;DHT22;15243;50.726;7.080;2023-05-07T13:52:59;21.90;1.00
27900;DHT22;15243;50.726;7.080;2023-05-07T13:55:28;21.80;1.00
27900;DHT22;15243;50.726;7.080;2023-05-07T13:57:57;21.70;14.00
27900;DHT22;15243;50.726;7.080;2023-05-07T14:00:26;21.60;1.00
27900;DHT22;15243;50.726;7.080;2023-05-07T14:02:53;21.60;1.80
27900;DHT22;15243;50.726;7.080;2023-05-07T14:05:21;21.50;39.00
27900;DHT22;15243;50.726;7.080;2023-05-07T14:07:51;21.50;42.10
27900;DHT22;15243;50.726;7.080;2023-05-07T14:10:19;21.30;44.90
27900;DHT22;15243;50.726;7.080;2023-05-07T14:12:46;21.10;72.80
27900;DHT22;15243;50.726;7.080;2023-05-07T14:15:15;21.10;91.20
27900;DHT22;15243;50.726;7.080;2023-05-07T14:17:43;21.10;61.00
27900;DHT22;15243;50.726;7.080;2023-05-07T14:20:11;21.20;69.20
27900;DHT22;15243;50.726;7.080;2023-05-07T14:22:39;21.20;89.50
27900;DHT22;15243;50.726;7.080;2023-05-07T14:25:07;21.10;69.30
27900;DHT22;15243;50.726;7.080;2023-05-07T14:27:34;21.00;78.30
27900;DHT22;15243;50.726;7.080;2023-05-07T14:30:01;20.90;25.80
27900;DHT22;15243;50.726;7.080;2023-05-07T14:32:28;20.90;23.10
27900;DHT22;15243;50.726;7.080;2023-05-07T14:34:55;20.70;34.90
27900;DHT22;15243;50.726;7.080;2023-05-07T14:37:22;20.60;48.80
27900;DHT22;15243;50.726;7.080;2023-05-07T14:39:50;20.30;40.10
27900;DHT22;15243;50.726;7.080;2023-05-07T14:42:17;19.90;94.20
27900;DHT22;15243;50.726;7.080;2023-05-07T14:44:44;20.10;96.30
27900;DHT22;15243;50.726;7.080;2023-05-07T14:47:13;20.00;99.90
27900;DHT22;15243;50.726;7.080;2023-05-07T14:49:45;20.20;96.90
27900;DHT22;15243;50.726;7.080;2023-05-07T14:52:12;20.00;99.90
27900;DHT22;15243;50.726;7.080;2023-05-07T14:54:39;19.80;99.90
27900;DHT22;15243;50.726;7.080;2023-05-07T14:57:08;19.90;99.90
27900;DHT22;15243;50.726;7.080;2023-05-07T14:59:37;19.70;99.90
27900;DHT22;15243;50.726;7.080;2023-05-07T15:02:05;19.80;99.90
27900;DHT22;15243;50.726;7.080;2023-05-07T15:04:34;19.60;99.90
27900;DHT22;15243;50.726;7.080;2023-05-07T15:07:02;19.70;99.90
27900;DHT22;15243;50.726;7.080;2023-05-07T15:09:29;19.70;99.90
27900;DHT22;15243;50.726;7.080;2023-05-07T15:11:56;19.70;99.90
27900;DHT22;15243;50.726;7.080;2023-05-07T15:14:23;19.60;99.90
27900;DHT22;15243;50.726;7.080;2023-05-07T15:16:50;19.50;99.90
27900;DHT22;15243;50.726;7.080;2023-05-07T15:19:19;19.20;99.90
27900;DHT22;15243;50.726;7.080;2023-05-07T15:21:48;19.10;99.90
27900;DHT22;15243;50.726;7.080;2023-05-07T15:24:15;18.90;99.90
27900;DHT22;15243;50.726;7.080;2023-05-07T15:26:42;18.90;99.90
27900;DHT22;15243;50.726;7.080;2023-05-07T15:29:09;18.70;99.90
27900;DHT22;15243;50.726;7.080;2023-05-07T15:31:42;18.60;99.90
27900;DHT22;15243;50.726;7.080;2023-05-07T15:34:09;18.60;99.90
27900;DHT22;15243;50.726;7.080;2023-05-07T15:36:37;18.50;99.90
27900;DHT22;15243;50.726;7.080;2023-05-07T15:39:04;18.40;99.90
27900;DHT22;15243;50.726;7.080;2023-05-07T15:41:31;18.40;99.90
27900;DHT22;15243;50.726;7.080;2023-05-07T15:43:59;18.50;99.90
27900;DHT22;15243;50.726;7.080;2023-05-07T15:46:28;18.40;99.90
27900;DHT22;15243;50.726;7.080;2023-05-07T15:48:55;18.30;99.90
27900;DHT22;15243;50.726;7.080;2023-05-07T15:51:23;18.30;99.90
27900;DHT22;15243;50.726;7.080;2023-05-07T15:53:50;18.40;99.90
27900;DHT22;15243;50.726;7.080;2023-05-07T15:56:20;18.50;99.90
27900;DHT22;15243;50.726;7.080;2023-05-07T15:58:47;18.40;99.90
27900;DHT22;15243;50.726;7.080;2023-05-07T16:01:14;18.40;99.90
27900;DHT22;15243;50.726;7.080;2023-05-07T16:03:42;18.30;99.90
27900;DHT22;15243;50.726;7.080;2023-05-07T16:06:09;18.20;99.90
27900;DHT22;15243;50.726;7.080;2023-05-07T16:08:39;18.10;99.90
27900;DHT22;15243;50.726;7.080;2023-05-07T16:11:08;17.90;99.90
27900;DHT22;15243;50.726;7.080;2023-05-07T16:13:35;17.80;99.90
27900;DHT22;15243;50.726;7.080;2023-05-07T16:16:02;17.80;99.90
27900;DHT22;15243;50.726;7.080;2023-05-07T16:18:29;17.80;99.90
27900;DHT22;15243;50.726;7.080;2023-05-07T16:20:56;17.80;99.90
27900;DHT22;15243;50.726;7.080;2023-05-07T16:23:26;17.60;99.90
27900;DHT22;15243;50.726;7.080;2023-05-07T16:25:53;17.40;99.90
27900;DHT22;15243;50.726;7.080;2023-05-07T16:28:20;17.40;99.90
27900;DHT22;15243;50.726;7.080;2023-05-07T16:30:50;17.40;99.90
27900;DHT22;15243;50.726;7.080;2023-05-07T16:33:18;17.40;99.90
27900;DHT22;15243;50.726;7.080;2023-05-07T16:35:51;17.50;99.90
27900;DHT22;15243;50.726;7.080;2023-05-07T16:38:18;17.50;99.90
27900;DHT22;15243;50.726;7.080;2023-05-07T16:40:47;17.40;99.90
27900;DHT22;15243;50.726;7.080;2023-05-07T16:43:15;17.50;99.90
27900;DHT22;15243;50.726;7.080;2023-05-07T16:45:44;17.50;99.90
27900;DHT22;15243;50.726;7.080;2023-05-07T16:48:13;17.40;99.90
27900;DHT22;15243;50.726;7.080;2023-05-07T16:50:40;17.40;99.90
27900;DHT22;15243;50.726;7.080;2023-05-07T16:53:10;17.20;99.90
27900;DHT22;15243;50.726;7.080;2023-05-07T16:55:37;17.20;99.90
27900;DHT22;15243;50.726;7.080;2023-05-07T16:58:09;17.20;99.90
27900;DHT22;15243;50.726;7.080;2023-05-07T17:00:37;17.20;99.90
27900;DHT22;15243;50.726;7.080;2023-05-07T17:03:16;17.20;99.90
27900;DHT22;15243;50.726;7.080;2023-05-07T17:05:44;17.20;99.90
27900;DHT22;15243;50.726;7.080;2023-05-07T17:08:10;17.20;99.90
27900;DHT22;15243;50.726;7.080;2023-05-07T17:10:40;17.30;99.90
27900;DHT22;15243;50.726;7.080;2023-05-07T17:13:07;17.20;99.90
27900;DHT22;15243;50.726;7.080;2023-05-07T17:15:34;17.10;99.90
27900;DHT22;15243;50.726;7.080;2023-05-07T17:18:00;17.00;99.90
27900;DHT22;15243;50.726;7.080;2023-05-07T17:20:27;16.80;99.90
27900;DHT22;15243;50.726;7.080;2023-05-07T17:22:54;16.80;99.90
27900;DHT22;15243;50.726;7.080;2023-05-07T17:25:21;16.80;99.90
27900;DHT22;15243;50.726;7.080;2023-05-07T17:27:48;16.80;99.90
27900;DHT22;15243;50.726;7.080;2023-05-07T17:30:16;16.70;99.90
27900;DHT22;15243;50.726;7.080;2023-05-07T17:32:42;16.70;99.90
27900;DHT22;15243;50.726;7.080;2023-05-07T17:35:09;16.70;99.90
27900;DHT22;15243;50.726;7.080;2023-05-07T17:37:36;16.60;99.90
27900;DHT22;15243;50.726;7.080;2023-05-07T17:40:03;16.60;99.90
27900;DHT22;15243;50.726;7.080;2023-05-07T17:42:30;16.50;99.90
27900;DHT22;15243;50.726;7.080;2023-05-07T17:44:57;16.50;99.90
27900;DHT22;15243;50.726;7.080;2023-05-07T17:47:24;16.40;99.90
27900;DHT22;15243;50.726;7.080;2023-05-07T17:49:51;16.40;99.90
27900;DHT22;15243;50.726;7.080;2023-05-07T17:52:18;16.30;99.90
27900;DHT22;15243;50.726;7.080;2023-05-07T17:54:45;16.40;99.90
27900;DHT22;15243;50.726;7.080;2023-05-07T17:57:12;16.40;99.90
27900;DHT22;15243;50.726;7.080;2023-05-07T17:59:39;16.30;99.90
27900;DHT22;15243;50.726;7.080;2023-05-07T18:02:06;16.30;99.90
27900;DHT22;15243;50.726;7.080;2023-05-07T18:04:32;16.20;99.90
27900;DHT22;15243;50.726;7.080;2023-05-07T18:06:59;16.30;99.90
27900;DHT22;15243;50.726;7.080;2023-05-07T18:09:26;16.30;99.90
27900;DHT22;15243;50.726;7.080;2023-05-07T18:11:53;16.20;99.90
27900;DHT22;15243;50.726;7.080;2023-05-07T18:14:20;16.20;99.90
27900;DHT22;15243;50.726;7.080;2023-05-07T18:16:50;16.20;99.90
27900;DHT22;15243;50.726;7.080;2023-05-07T18:19:17;16.20;99.90
27900;DHT22;15243;50.726;7.080;2023-05-07T18:21:43;16.20;99.90
27900;DHT22;15243;50.726;7.080;2023-05-07T18:24:10;16.20;99.90
27900;DHT22;15243;50.726;7.080;2023-05-07T18:26:37;16.20;99.90
27900;DHT22;15243;50.726;7.080;2023-05-07T18:29:04;16.20;99.90
27900;DHT22;15243;50.726;7.080;2023-05-07T18:31:31;16.20;99.90
27900;DHT22;15243;50.726;7.080;2023-05-07T18:33:59;16.20;99.90
27900;DHT22;15243;50.726;7.080;2023-05-07T18:36:26;16.10;99.90
27900;DHT22;15243;50.726;7.080;2023-05-07T18:38:53;16.10;99.90
27900;DHT22;15243;50.726;7.080;2023-05-07T18:41:20;16.00;99.90
27900;DHT22;15243;50.726;7.080;2023-05-07T18:43:47;16.00;99.90
27900;DHT22;15243;50.726;7.080;2023-05-07T18:46:14;16.00;99.90
27900;DHT22;15243;50.726;7.080;2023-05-07T18:48:42;15.90;99.90
27900;DHT22;15243;50.726;7.080;2023-05-07T18:51:09;15.90;99.90
27900;DHT22;15243;50.726;7.080;2023-05-07T18:53:38;15.90;99.90
27900;DHT22;15243;50.726;7.080;2023-05-07T18:56:06;15.90;99.90
27900;DHT22;15243;50.726;7.080;2023-05-07T18:58:33;15.90;99.90
27900;DHT22;15243;50.726;7.080;2023-05-07T19:01:00;15.80;99.90
27900;DHT22;15243;50.726;7.080;2023-05-07T19:03:29;15.80;99.90
27900;DHT22;15243;50.726;7.080;2023-05-07T19:05:59;15.80;99.90
27900;DHT22;15243;50.726;7.080;2023-05-07T19:08:27;15.80;99.90
27900;DHT22;15243;50.726;7.080;2023-05-07T19:11:03;15.80;99.90
27900;DHT22;15243;50.726;7.080;2023-05-07T19:13:30;15.70;99.90
27900;DHT22;15243;50.726;7.080;2023-05-07T19:15:58;15.70;99.90
27900;DHT22;15243;50.726;7.080;2023-05-07T19:18:28;15.60;99.90
27900;DHT22;15243;50.726;7.080;2023-05-07T19:21:15;15.60;99.90
27900;DHT22;15243;50.726;7.080;2023-05-07T19:23:42;15.60;99.90
27900;DHT22;15243;50.726;7.080;2023-05-07T19:26:10;15.60;99.90
27900;DHT22;15243;50.726;7.080;2023-05-07T19:28:38;15.60;99.90
27900;DHT22;15243;50.726;7.080;2023-05-07T19:31:18;15.60;99.90
27900;DHT22;15243;50.726;7.080;2023-05-07T19:33:46;15.60;99.90
27900;DHT22;15243;50.726;7.080;2023-05-07T19:36:19;15.50;99.90
27900;DHT22;15243;50.726;7.080;2023-05-07T19:38:46;15.50;99.90
27900;DHT22;15243;50.726;7.080;2023-05-07T19:41:15;15.50;99.90
27900;DHT22;15243;50.726;7.080;2023-05-07T19:43:42;15.50;99.90
27900;DHT22;15243;50.726;7.080;2023-05-07T19:46:12;15.50;99.90
27900;DHT22;15243;50.726;7.080;2023-05-07T19:48:47;15.50;99.90
27900;DHT22;15243;50.726;7.080;2023-05-07T19:51:14;15.50;99.90
27900;DHT22;15243;50.726;7.080;2023-05-07T19:53:42;15.50;99.90
27900;DHT22;15243;50.726;7.080;2023-05-07T19:56:12;15.50;99.90
27900;DHT22;15243;50.726;7.080;2023-05-07T19:58:40;15.50;99.90
27900;DHT22;15243;50.726;7.080;2023-05-07T20:01:08;15.40;99.90
27900;DHT22;15243;50.726;7.080;2023-05-07T20:03:35;15.30;99.90
27900;DHT22;15243;50.726;7.080;2023-05-07T20:06:02;15.30;99.90
27900;DHT22;15243;50.726;7.080;2023-05-07T20:08:30;15.40;99.90
27900;DHT22;15243;50.726;7.080;2023-05-07T20:10:57;15.30;99.90
27900;DHT22;15243;50.726;7.080;2023-05-07T20:13:25;15.30;99.90
27900;DHT22;15243;50.726;7.080;2023-05-07T20:16:00;15.30;99.90
27900;DHT22;15243;50.726;7.080;2023-05-07T20:18:28;15.20;99.90
27900;DHT22;15243;50.726;7.080;2023-05-07T20:20:56;15.30;99.90
27900;DHT22;15243;50.726;7.080;2023-05-07T20:23:32;15.20;99.90
27900;DHT22;15243;50.726;7.080;2023-05-07T20:25:59;15.20;99.90
27900;DHT22;15243;50.726;7.080;2023-05-07T20:28:26;15.20;99.90
27900;DHT22;15243;50.726;7.080;2023-05-07T20:30:53;15.20;99.90
27900;DHT22;15243;50.726;7.080;2023-05-07T20:33:21;15.10;99.90
27900;DHT22;15243;50.726;7.080;2023-05-07T20:35:48;15.10;99.90
27900;DHT22;15243;50.726;7.080;2023-05-07T20:38:15;15.10;99.90
27900;DHT22;15243;50.726;7.080;2023-05-07T20:40:42;15.00;99.90